createdAt,value
2023-01-19T00:01:53.862Z,-1.50
2023-01-19T00:04:24.107Z,-1.60
2023-01-19T00:06:56.238Z,-1.70
2023-01-19T00:09:26.274Z,-1.70
2023-01-19T00:11:56.913Z,-1.80
2023-01-19T00:16:48.043Z,-2.00
2023-01-19T00:19:18.363Z,-2.20
2023-01-19T00:21:49.545Z,-2.40
2023-01-19T00:24:20.037Z,-2.50
2023-01-19T00:26:50.624Z,-2.60
2023-01-19T00:29:21.534Z,-2.60
2023-01-19T00:31:55.737Z,-2.60
2023-01-19T00:34:26.235Z,-2.60
2023-01-19T00:36:56.703Z,-2.40
2023-01-19T00:39:27.533Z,-2.40
2023-01-19T00:42:14.601Z,-2.40
2023-01-19T00:44:48.513Z,-2.60
2023-01-19T00:47:21.184Z,-2.70
2023-01-19T00:49:51.560Z,-2.80
2023-01-19T00:52:24.175Z,-2.80
2023-01-19T00:54:55.102Z,-2.60
2023-01-19T00:57:25.500Z,-2.40
2023-01-19T00:59:59.576Z,-2.30
2023-01-19T01:02:31.293Z,-2.10
2023-01-19T01:05:03.765Z,-1.90
2023-01-19T01:07:36.013Z,-1.90
2023-01-19T01:10:06.321Z,-1.90
2023-01-19T01:12:36.788Z,-2.10
2023-01-19T01:15:08.559Z,-2.10
2023-01-19T01:17:48.684Z,-2.10
2023-01-19T01:20:22.082Z,-2.20
2023-01-19T01:22:53.768Z,-2.20
2023-01-19T01:25:25.443Z,-2.20
2023-01-19T01:27:56.092Z,-2.20
2023-01-19T01:30:26.548Z,-2.30
2023-01-19T01:32:58.354Z,-2.40
2023-01-19T01:35:28.610Z,-2.40
2023-01-19T01:38:01.389Z,-2.50
2023-01-19T01:40:32.080Z,-2.50
2023-01-19T01:43:03.349Z,-2.60
2023-01-19T01:45:36.355Z,-2.70
2023-01-19T01:48:12.844Z,-2.80
2023-01-19T01:51:19.899Z,-2.80
2023-01-19T01:53:55.255Z,-2.80
2023-01-19T01:56:31.636Z,-2.90
2023-01-19T01:59:03.025Z,-2.90
2023-01-19T02:01:58.756Z,-3.00
2023-01-19T02:04:33.292Z,-3.20
2023-01-19T02:07:21.398Z,-3.40
2023-01-19T02:10:09.077Z,-3.60
2023-01-19T02:12:56.571Z,-3.90
2023-01-19T02:15:27.667Z,-4.00
2023-01-19T02:17:59.254Z,-4.10
2023-01-19T02:20:33.840Z,-4.20
2023-01-19T02:23:08.867Z,-4.30
2023-01-19T02:25:41.193Z,-4.30
2023-01-19T02:28:11.712Z,-4.20
2023-01-19T02:30:44.173Z,-4.00
2023-01-19T02:33:14.384Z,-3.90
2023-01-19T02:35:46.040Z,-3.90
2023-01-19T02:38:17.720Z,-3.80
2023-01-19T02:40:51.191Z,-3.70
2023-01-19T02:43:22.688Z,-3.70
2023-01-19T02:45:52.987Z,-3.80
2023-01-19T02:48:24.158Z,-3.70
2023-01-19T02:50:56.735Z,-3.50
2023-01-19T02:54:16.748Z,-3.50
2023-01-19T02:57:08.730Z,-3.60
2023-01-19T03:00:01.909Z,-3.80
2023-01-19T03:02:47.134Z,-3.90
2023-01-19T03:05:45.382Z,-4.00
2023-01-19T03:08:25.376Z,-3.90
2023-01-19T03:11:02.436Z,-3.80
2023-01-19T03:13:47.741Z,-3.70
2023-01-19T03:16:23.841Z,-3.70
2023-01-19T03:18:57.882Z,-3.80
2023-01-19T03:21:31.403Z,-3.90
2023-01-19T03:24:09.066Z,-4.00
2023-01-19T03:26:45.110Z,-4.20
2023-01-19T03:29:19.797Z,-4.30
2023-01-19T03:31:52.462Z,-4.40
2023-01-19T03:34:24.730Z,-4.40
2023-01-19T03:36:58.039Z,-4.60
2023-01-19T03:39:31.023Z,-4.90
2023-01-19T03:42:05.301Z,-4.90
2023-01-19T03:44:41.324Z,-4.90
2023-01-19T03:47:14.099Z,-5.10
2023-01-19T03:49:46.271Z,-5.20
2023-01-19T03:52:16.933Z,-5.20
2023-01-19T03:54:47.150Z,-4.90
2023-01-19T03:57:17.600Z,-4.70
2023-01-19T03:59:50.152Z,-4.50
2023-01-19T04:02:20.316Z,-4.30
2023-01-19T04:04:50.774Z,-4.20
2023-01-19T04:07:20.914Z,-4.20
2023-01-19T04:09:50.923Z,-4.40
2023-01-19T04:12:21.140Z,-4.60
2023-01-19T04:14:52.956Z,-4.80
2023-01-19T04:17:23.172Z,-4.90
2023-01-19T04:19:54.042Z,-5.20
2023-01-19T04:22:24.154Z,-5.30
2023-01-19T04:24:54.382Z,-5.20
2023-01-19T04:27:24.684Z,-5.40
2023-01-19T04:29:56.369Z,-5.50
2023-01-19T04:32:26.679Z,-5.60
2023-01-19T04:35:06.616Z,-5.70
2023-01-19T04:37:36.731Z,-5.80
2023-01-19T04:40:07.752Z,-5.80
2023-01-19T04:42:37.868Z,-5.80
2023-01-19T04:45:10.792Z,-5.90
2023-01-19T04:47:40.925Z,-6.20
2023-01-19T04:50:13.049Z,-6.50
2023-01-19T04:52:43.196Z,-6.80
2023-01-19T04:55:13.798Z,-6.80
2023-01-19T04:57:44.303Z,-6.70
2023-01-19T05:00:17.729Z,-6.70
2023-01-19T05:02:47.961Z,-6.60
2023-01-19T05:05:18.155Z,-6.50
2023-01-19T05:07:48.272Z,-6.50
2023-01-19T05:10:18.591Z,-6.50
2023-01-19T05:12:48.852Z,-6.70
2023-01-19T05:15:21.265Z,-6.80
2023-01-19T05:17:51.607Z,-6.90
2023-01-19T05:20:22.000Z,-7.10
2023-01-19T05:22:52.712Z,-7.10
2023-01-19T05:25:22.944Z,-6.80
2023-01-19T05:27:53.176Z,-6.80
2023-01-19T05:30:24.839Z,-6.80
2023-01-19T05:32:55.014Z,-6.70
2023-01-19T05:35:35.283Z,-6.70
2023-01-19T05:38:06.642Z,-7.00
2023-01-19T05:40:37.040Z,-7.10
2023-01-19T05:43:07.169Z,-7.20
2023-01-19T05:45:39.480Z,-7.20
2023-01-19T05:48:10.275Z,-7.10
2023-01-19T05:50:40.413Z,-6.90
2023-01-19T05:53:10.571Z,-6.60
2023-01-19T05:55:40.740Z,-6.50
2023-01-19T05:58:10.867Z,-6.30
2023-01-19T06:00:42.823Z,-6.30
2023-01-19T06:03:13.195Z,-6.20
2023-01-19T06:05:43.313Z,-6.10
2023-01-19T06:08:13.414Z,-6.00
2023-01-19T06:10:43.787Z,-5.90
2023-01-19T06:13:13.962Z,-5.80
2023-01-19T06:15:46.111Z,-5.70
2023-01-19T06:18:16.943Z,-5.60
2023-01-19T06:20:47.032Z,-5.60
2023-01-19T06:23:17.490Z,-5.60
2023-01-19T06:25:47.588Z,-5.60
2023-01-19T06:28:17.728Z,-5.50
2023-01-19T06:30:51.817Z,-5.40
2023-01-19T06:33:22.293Z,-5.60
2023-01-19T06:35:53.723Z,-5.50
2023-01-19T06:38:23.916Z,-5.40
2023-01-19T06:40:59.096Z,-5.40
2023-01-19T06:43:29.338Z,-5.20
2023-01-19T06:46:02.415Z,-5.20
2023-01-19T06:48:32.597Z,-5.20
2023-01-19T06:51:02.646Z,-5.10
2023-01-19T06:56:45.615Z,-4.80
2023-01-19T06:59:15.986Z,-4.70
2023-01-19T07:01:46.185Z,-4.70
2023-01-19T07:04:16.356Z,-4.60
2023-01-19T07:06:46.517Z,-4.60
2023-01-19T07:09:17.750Z,-4.50
2023-01-19T07:11:49.591Z,-4.40
2023-01-19T07:14:20.016Z,-4.50
2023-01-19T07:16:50.201Z,-4.50
2023-01-19T07:19:20.367Z,-4.50
2023-01-19T07:21:50.463Z,-4.50
2023-01-19T07:24:20.557Z,-4.40
2023-01-19T07:26:52.249Z,-4.30
2023-01-19T07:29:22.383Z,-4.30
2023-01-19T07:31:55.054Z,-4.20
2023-01-19T07:34:25.230Z,-4.10
2023-01-19T07:36:55.329Z,-4.10
2023-01-19T07:39:25.409Z,-4.00
2023-01-19T07:41:57.228Z,-4.00
2023-01-19T07:44:28.217Z,-3.90
2023-01-19T07:46:58.463Z,-3.90
2023-01-19T07:49:28.736Z,-3.90
2023-01-19T07:51:58.832Z,-3.90
2023-01-19T07:54:29.359Z,-3.80
2023-01-19T07:57:01.531Z,-3.80
2023-01-19T07:59:32.963Z,-3.80
2023-01-19T08:02:03.143Z,-3.80
2023-01-19T08:04:33.445Z,-3.70
2023-01-19T08:07:04.491Z,-3.70
2023-01-19T08:09:34.589Z,-3.60
2023-01-19T08:12:06.588Z,-3.60
2023-01-19T08:14:36.821Z,-3.60
2023-01-19T08:17:07.175Z,-3.50
2023-01-19T08:19:37.287Z,-3.40
2023-01-19T08:22:07.604Z,-3.40
2023-01-19T08:24:37.727Z,-3.40
2023-01-19T08:27:12.665Z,-3.30
2023-01-19T08:29:42.826Z,-3.30
2023-01-19T08:32:13.017Z,-3.30
2023-01-19T08:34:43.592Z,-3.20
2023-01-19T08:37:13.847Z,-3.20
2023-01-19T08:39:44.253Z,-3.10
2023-01-19T08:42:16.519Z,-3.10
2023-01-19T08:44:57.698Z,-3.00
2023-01-19T08:47:28.336Z,-3.00
2023-01-19T08:49:58.480Z,-2.90
2023-01-19T08:52:29.985Z,-2.90
2023-01-19T08:55:00.709Z,-2.90
2023-01-19T08:57:32.497Z,-2.90
2023-01-19T09:00:02.635Z,-2.80
2023-01-19T09:02:32.960Z,-2.80
2023-01-19T09:05:03.192Z,-2.80
2023-01-19T09:07:35.394Z,-2.70
2023-01-19T09:10:06.280Z,-2.60
2023-01-19T09:12:37.931Z,-2.60
2023-01-19T09:15:09.231Z,-2.50
2023-01-19T09:17:39.437Z,-2.40
2023-01-19T09:20:10.556Z,-2.30
2023-01-19T09:22:40.656Z,-2.30
2023-01-19T09:25:11.871Z,-2.30
2023-01-19T09:27:43.502Z,-2.20
2023-01-19T09:30:14.925Z,-2.20
2023-01-19T09:32:45.704Z,-2.10
2023-01-19T09:35:16.183Z,-2.10
2023-01-19T09:37:49.388Z,-2.20
2023-01-19T09:40:22.460Z,-2.20
2023-01-19T09:42:59.935Z,-2.20
2023-01-19T09:45:37.827Z,-2.30
2023-01-19T09:48:16.102Z,-2.20
2023-01-19T09:50:49.025Z,-2.20
2023-01-19T09:53:33.975Z,-2.30
2023-01-19T09:56:04.532Z,-2.20
2023-01-19T09:58:36.493Z,-2.20
2023-01-19T10:01:22.806Z,-2.20
2023-01-19T10:04:01.407Z,-2.20
2023-01-19T10:06:31.908Z,-2.20
2023-01-19T10:09:07.560Z,-2.20
2023-01-19T10:11:52.623Z,-2.30
2023-01-19T10:14:29.182Z,-2.30
2023-01-19T10:17:08.728Z,-2.30
2023-01-19T10:19:46.396Z,-2.40
2023-01-19T10:22:23.897Z,-2.40
2023-01-19T10:24:57.716Z,-2.40
2023-01-19T10:27:31.116Z,-2.40
2023-01-19T10:30:04.898Z,-2.40
2023-01-19T10:32:38.181Z,-2.40
2023-01-19T10:35:22.447Z,-2.40
2023-01-19T10:37:53.189Z,-2.40
2023-01-19T10:40:32.653Z,-2.40
2023-01-19T10:43:03.395Z,-2.40
2023-01-19T10:45:36.823Z,-2.40
2023-01-19T10:48:09.774Z,-2.40
2023-01-19T10:50:41.778Z,-2.40
2023-01-19T10:53:22.965Z,-2.40
2023-01-19T10:56:15.035Z,-2.40
2023-01-19T10:58:45.318Z,-2.30
2023-01-19T11:01:19.478Z,-2.40
2023-01-19T11:03:49.998Z,-2.40
2023-01-19T11:06:26.625Z,-2.30
2023-01-19T11:09:12.151Z,-2.30
2023-01-19T11:11:47.617Z,-2.30
2023-01-19T11:14:21.789Z,-2.20
2023-01-19T11:16:57.019Z,-2.20
2023-01-19T11:19:32.488Z,-2.10
2023-01-19T11:22:22.384Z,-2.10
2023-01-19T11:24:52.858Z,-2.00
2023-01-19T11:27:23.889Z,-2.10
2023-01-19T11:30:01.247Z,-2.00
2023-01-19T11:32:36.424Z,-2.00
2023-01-19T11:35:37.879Z,-1.90
2023-01-19T11:38:23.819Z,-1.90
2023-01-19T11:40:57.197Z,-1.90
2023-01-19T11:43:47.499Z,-1.90
2023-01-19T11:46:19.217Z,-1.90
2023-01-19T11:49:01.816Z,-1.90
2023-01-19T11:51:37.808Z,-1.90
2023-01-19T11:54:24.356Z,-1.90
2023-01-19T11:56:56.373Z,-1.90
2023-01-19T11:59:26.480Z,-1.90
2023-01-19T12:01:59.801Z,-2.00
2023-01-19T12:04:35.600Z,-1.90
2023-01-19T12:07:11.284Z,-1.90
2023-01-19T12:09:47.055Z,-1.90
2023-01-19T12:12:26.392Z,-1.90
2023-01-19T12:15:02.273Z,-1.90
2023-01-19T12:17:36.009Z,-1.80
2023-01-19T12:20:19.813Z,-1.90
2023-01-19T12:22:54.988Z,-1.90
2023-01-19T12:25:29.910Z,-1.90
2023-01-19T12:28:01.494Z,-1.90
2023-01-19T12:30:32.669Z,-1.90
2023-01-19T12:33:35.581Z,-1.90
2023-01-19T12:36:12.501Z,-1.90
2023-01-19T12:38:51.710Z,-2.00
2023-01-19T12:41:29.048Z,-2.00
2023-01-19T12:44:24.011Z,-2.00
2023-01-19T12:46:57.920Z,-2.00
2023-01-19T12:49:31.500Z,-1.90
2023-01-19T12:52:28.682Z,-1.90
2023-01-19T12:55:06.211Z,-1.90
2023-01-19T12:57:41.277Z,-1.90
2023-01-19T13:00:35.100Z,-1.80
2023-01-19T13:03:07.874Z,-1.80
2023-01-19T13:06:02.311Z,-1.80
2023-01-19T13:09:01.200Z,-1.80
2023-01-19T13:11:34.445Z,-1.70
2023-01-19T13:14:37.070Z,-1.60
2023-01-19T13:17:35.588Z,-1.60
2023-01-19T13:20:24.901Z,-1.50
2023-01-19T13:23:20.912Z,-1.50
2023-01-19T13:26:03.307Z,-1.40
2023-01-19T13:28:42.075Z,-1.30
2023-01-19T13:31:13.798Z,-1.30
2023-01-19T13:33:51.462Z,-1.20
2023-01-19T13:36:32.141Z,-1.10
2023-01-19T13:39:05.711Z,-1.00
2023-01-19T13:41:40.658Z,-1.00
2023-01-19T13:44:15.688Z,-0.90
2023-01-19T13:46:46.278Z,-0.90
2023-01-19T13:49:21.374Z,-0.80
2023-01-19T13:52:06.957Z,-0.80
2023-01-19T13:54:37.274Z,-0.70
2023-01-19T13:57:23.008Z,-0.60
2023-01-19T14:00:07.164Z,-0.50
2023-01-19T14:02:37.497Z,-0.50
2023-01-19T14:05:17.110Z,-0.40
2023-01-19T14:07:47.690Z,-0.40
2023-01-19T14:10:19.138Z,-0.30
2023-01-19T14:13:01.413Z,-0.20
2023-01-19T14:15:32.038Z,-0.10
2023-01-19T14:18:27.206Z,0.10
2023-01-19T14:21:00.383Z,0.20
2023-01-19T14:23:49.244Z,0.30
2023-01-19T14:26:46.295Z,0.40
2023-01-19T14:29:27.837Z,0.50
2023-01-19T14:32:13.747Z,0.60
2023-01-19T14:34:45.509Z,0.80
2023-01-19T14:37:27.511Z,0.80
2023-01-19T14:40:05.247Z,0.90
2023-01-19T14:42:38.258Z,0.90
2023-01-19T14:45:21.416Z,0.90
2023-01-19T14:48:00.077Z,1.00
2023-01-19T14:50:33.552Z,1.20
2023-01-19T14:53:06.783Z,1.20
2023-01-19T14:55:40.374Z,1.30
2023-01-19T14:58:14.975Z,1.40
2023-01-19T15:01:40.501Z,1.40
2023-01-19T15:04:10.757Z,1.40
2023-01-19T15:06:46.468Z,1.50
2023-01-19T15:09:17.923Z,1.60
2023-01-19T15:11:51.571Z,1.70
2023-01-19T15:14:23.015Z,1.80
2023-01-19T15:16:54.764Z,2.00
2023-01-19T15:19:24.917Z,2.10
2023-01-19T15:21:55.090Z,1.90
2023-01-19T15:24:25.219Z,1.90
2023-01-19T15:26:55.290Z,2.00
2023-01-19T15:29:27.245Z,2.00
2023-01-19T15:31:58.933Z,1.80
2023-01-19T15:34:29.156Z,2.00
2023-01-19T15:37:00.527Z,2.10
2023-01-19T15:39:30.645Z,1.90
2023-01-19T15:42:00.753Z,2.10
2023-01-19T15:44:31.747Z,2.20
2023-01-19T15:47:03.399Z,2.20
2023-01-19T15:49:33.799Z,2.10
2023-01-19T15:52:03.922Z,2.10
2023-01-19T15:54:34.601Z,2.00
2023-01-19T15:57:04.689Z,1.90
2023-01-19T15:59:34.861Z,1.80
2023-01-19T16:02:06.702Z,1.80
2023-01-19T16:04:36.995Z,1.90
2023-01-19T16:07:07.228Z,2.00
2023-01-19T16:09:37.371Z,2.20
2023-01-19T16:12:07.781Z,2.00
2023-01-19T16:14:37.863Z,2.10
2023-01-19T16:17:09.543Z,2.20
2023-01-19T16:19:39.677Z,2.30
2023-01-19T16:22:10.602Z,2.20
2023-01-19T16:24:40.754Z,2.20
2023-01-19T16:27:10.938Z,2.20
2023-01-19T16:29:41.059Z,2.20
2023-01-19T16:32:12.899Z,2.30
2023-01-19T16:34:43.051Z,2.40
2023-01-19T16:37:13.810Z,2.40
2023-01-19T16:39:45.829Z,2.30
2023-01-19T16:42:17.165Z,2.30
2023-01-19T16:44:47.366Z,2.20
2023-01-19T16:47:19.281Z,2.20
2023-01-19T16:49:49.470Z,2.10
2023-01-19T16:52:19.654Z,2.10
2023-01-19T16:54:50.502Z,2.10
2023-01-19T16:57:20.556Z,2.10
2023-01-19T16:59:52.091Z,2.10
2023-01-19T17:02:23.926Z,2.00
2023-01-19T17:04:54.031Z,1.90
2023-01-19T17:07:24.106Z,2.00
2023-01-19T17:09:54.443Z,1.90
2023-01-19T17:12:24.593Z,1.80
2023-01-19T17:14:54.726Z,1.90
2023-01-19T17:17:26.425Z,1.90
2023-01-19T17:19:56.549Z,2.00
2023-01-19T17:22:26.666Z,2.00
2023-01-19T17:24:56.964Z,2.10
2023-01-19T17:27:27.230Z,1.80
2023-01-19T17:29:57.337Z,1.90
2023-01-19T17:32:29.050Z,2.10
2023-01-19T17:34:59.158Z,2.30
2023-01-19T17:37:29.235Z,2.10
2023-01-19T17:39:59.393Z,2.30
2023-01-19T17:42:30.060Z,2.30
2023-01-19T17:45:00.224Z,2.30
2023-01-19T17:47:31.880Z,2.30
2023-01-19T17:50:01.970Z,2.30
2023-01-19T17:52:32.093Z,2.20
2023-01-19T17:55:02.614Z,2.10
2023-01-19T17:57:32.698Z,2.10
2023-01-19T18:00:03.007Z,2.20
2023-01-19T18:02:35.098Z,2.20
2023-01-19T18:05:05.295Z,2.10
2023-01-19T18:07:35.377Z,2.00
2023-01-19T18:10:07.095Z,2.00
2023-01-19T18:12:37.402Z,1.90
2023-01-19T18:15:08.997Z,2.00
2023-01-19T18:17:40.704Z,1.90
2023-01-19T18:20:12.390Z,1.90
2023-01-19T18:22:42.610Z,1.90
2023-01-19T18:25:12.996Z,1.80
2023-01-19T18:27:43.074Z,1.60
2023-01-19T18:30:14.465Z,1.60
2023-01-19T18:32:47.417Z,1.50
2023-01-19T18:35:17.613Z,1.50
2023-01-19T18:37:47.757Z,1.50
2023-01-19T18:40:18.221Z,1.40
2023-01-19T18:42:48.375Z,1.50
2023-01-19T18:45:18.976Z,1.30
2023-01-19T18:47:50.698Z,1.30
2023-01-19T18:50:21.225Z,1.30
2023-01-19T18:52:53.431Z,1.20
2023-01-19T18:55:24.741Z,1.20
2023-01-19T18:57:55.025Z,1.20
2023-01-19T19:00:25.554Z,1.20
2023-01-19T19:02:58.326Z,1.10
2023-01-19T19:05:28.513Z,1.20
2023-01-19T19:07:58.820Z,1.20
2023-01-19T19:10:28.940Z,1.30
2023-01-19T19:12:59.134Z,1.30
2023-01-19T19:15:29.697Z,1.20
2023-01-19T19:18:01.885Z,1.20
2023-01-19T19:20:31.992Z,1.30
2023-01-19T19:23:02.051Z,1.30
2023-01-19T19:25:33.894Z,1.30
2023-01-19T19:28:03.967Z,1.20
2023-01-19T19:30:36.440Z,1.10
2023-01-19T19:33:08.445Z,1.00
2023-01-19T19:35:38.598Z,0.80
2023-01-19T19:38:08.877Z,0.80
2023-01-19T19:40:39.013Z,0.80
2023-01-19T19:43:09.103Z,0.80
2023-01-19T19:45:39.383Z,0.70
2023-01-19T19:48:11.180Z,0.70
2023-01-19T19:50:41.365Z,0.60
2023-01-19T19:53:11.391Z,0.70
2023-01-19T19:55:41.858Z,0.70
2023-01-19T19:58:12.130Z,0.60
2023-01-19T20:00:46.411Z,0.50
2023-01-19T20:03:18.271Z,0.30
2023-01-19T20:05:49.162Z,0.30
2023-01-19T20:08:19.278Z,0.20
2023-01-19T20:10:50.584Z,0.20
2023-01-19T20:13:21.620Z,0.10
2023-01-19T20:15:51.724Z,0.10
2023-01-19T20:18:23.817Z,0.10
2023-01-19T20:20:54.077Z,0.10
2023-01-19T20:23:24.330Z,0.00
2023-01-19T20:25:54.811Z,0.00
2023-01-19T20:28:24.827Z,-0.10
2023-01-19T20:30:55.381Z,-0.20
2023-01-19T20:33:27.090Z,-0.20
2023-01-19T20:35:57.246Z,-0.20
2023-01-19T20:38:27.354Z,-0.30
2023-01-19T20:40:57.979Z,-0.30
2023-01-19T20:43:28.063Z,-0.40
2023-01-19T20:45:58.262Z,-0.40
2023-01-19T20:48:30.799Z,-0.40
2023-01-19T20:51:01.433Z,-0.50
2023-01-19T20:53:32.643Z,-0.50
2023-01-19T20:56:07.066Z,-0.50
2023-01-19T20:58:37.372Z,-0.50
2023-01-19T21:01:13.256Z,-0.60
2023-01-19T21:03:45.427Z,-0.60
2023-01-19T21:06:16.572Z,-0.70
2023-01-19T21:08:46.722Z,-0.70
2023-01-19T21:11:19.365Z,-0.70
2023-01-19T21:13:51.144Z,-0.80
2023-01-19T21:16:21.277Z,-0.80
2023-01-19T21:18:53.028Z,-0.80
2023-01-19T21:21:30.388Z,-0.90
2023-01-19T21:24:02.468Z,-0.90
2023-01-19T21:26:33.998Z,-0.90
2023-01-19T21:29:05.333Z,-1.00
2023-01-19T21:31:35.587Z,-1.00
2023-01-19T21:34:07.226Z,-1.10
2023-01-19T21:36:37.354Z,-1.10
2023-01-19T21:39:08.812Z,-1.10
2023-01-19T21:41:40.534Z,-1.10
2023-01-19T21:44:10.862Z,-1.20
2023-01-19T21:46:41.522Z,-1.30
2023-01-19T21:49:19.154Z,-1.30
2023-01-19T21:51:51.148Z,-1.40
2023-01-19T21:54:22.123Z,-1.40
2023-01-19T21:56:52.281Z,-1.50
2023-01-19T21:59:22.323Z,-1.50
2023-01-19T22:01:52.564Z,-1.60
2023-01-19T22:04:24.442Z,-1.60
2023-01-19T22:06:54.572Z,-1.60
2023-01-19T22:09:24.689Z,-1.60
2023-01-19T22:11:54.806Z,-1.70
2023-01-19T22:14:24.811Z,-1.70
2023-01-19T22:16:55.169Z,-1.70
2023-01-19T22:19:27.128Z,-1.80
2023-01-19T22:21:57.355Z,-1.80
2023-01-19T22:24:27.769Z,-1.80
2023-01-19T22:26:57.949Z,-1.80
2023-01-19T22:29:28.041Z,-1.80
2023-01-19T22:31:58.145Z,-1.70
2023-01-19T22:34:29.897Z,-1.70
2023-01-19T22:37:00.105Z,-1.70
2023-01-19T22:39:30.189Z,-1.70
2023-01-19T22:42:00.333Z,-1.70
2023-01-19T22:44:30.455Z,-1.70
2023-01-19T22:47:00.654Z,-1.70
2023-01-19T22:49:32.415Z,-1.70
2023-01-19T22:52:02.550Z,-1.80
2023-01-19T22:54:33.158Z,-1.80
2023-01-19T22:57:03.498Z,-1.90
2023-01-19T22:59:33.533Z,-1.90
2023-01-19T23:02:03.860Z,-1.90
2023-01-19T23:04:35.642Z,-1.90
2023-01-19T23:07:05.871Z,-2.00
2023-01-19T23:09:36.357Z,-2.00
2023-01-19T23:12:07.074Z,-2.00
2023-01-19T23:14:37.371Z,-2.00
2023-01-19T23:17:07.730Z,-2.10
2023-01-19T23:19:39.687Z,-2.10
2023-01-19T23:22:09.914Z,-2.10
2023-01-19T23:24:40.076Z,-2.10
2023-01-19T23:27:10.256Z,-2.10
2023-01-19T23:29:40.391Z,-2.10
2023-01-19T23:32:10.884Z,-2.10
2023-01-19T23:34:43.834Z,-2.20
2023-01-19T23:37:13.959Z,-2.20
2023-01-19T23:39:44.238Z,-2.20
2023-01-19T23:42:14.343Z,-2.20
2023-01-19T23:44:44.799Z,-2.30
2023-01-19T23:47:15.818Z,-2.30
2023-01-19T23:49:47.621Z,-2.30
2023-01-19T23:52:17.825Z,-2.30
2023-01-19T23:54:48.419Z,-2.30
2023-01-19T23:57:18.516Z,-2.30
2023-01-19T23:59:48.569Z,-2.30
